Time;durP1;ratioP1;P1;durP2;ratioP2;P2;SDS_P1;SDS_P2;PMS_P1;PMS_P2;Temp;Humidity;BMP_temperature;BMP_pressure;BME280_temperature;BME280_humidity;BME280_pressure;Samples;Min_cycle;Max_cycle;Signal;HPM_P1;HPM_P2
2023/08/01 00:02:34;;;;;;;3.87;1.93;;;20.80;99.90;;;;;;2604073;47;20073;31
2023/08/01 00:05:07;;;;;;;8.30;2.25;;;20.80;99.90;;;;;;2585724;54;20046;31
2023/08/01 00:07:46;;;;;;;4.77;1.60;;;20.80;99.90;;;;;;2585812;54;20173;31
2023/08/01 00:10:21;;;;;;;4.95;2.00;;;20.80;99.90;;;;;;2586874;54;20843;31
2023/08/01 00:13:01;;;;;;;6.37;2.10;;;20.80;99.90;;;;;;2586690;54;20034;31
2023/08/01 00:15:35;;;;;;;5.00;1.88;;;20.80;99.90;;;;;;2586698;54;20724;31
2023/08/01 00:18:11;;;;;;;5.53;1.77;;;20.80;99.90;;;;;;2586439;54;20782;31
2023/08/01 00:20:45;;;;;;;5.03;1.70;;;20.80;99.90;;;;;;2586498;54;20034;31
2023/08/01 00:23:31;;;;;;;5.03;2.10;;;20.80;99.90;;;;;;2586631;54;20764;31
2023/08/01 00:26:06;;;;;;;6.40;1.75;;;20.80;99.90;;;;;;2586474;54;20076;31
2023/08/01 00:28:40;;;;;;;5.70;1.48;;;20.70;99.90;;;;;;2586534;54;20134;31
2023/08/01 00:31:15;;;;;;;4.20;1.80;;;20.70;99.90;;;;;;2586534;54;20022;31
2023/08/01 00:33:50;;;;;;;4.80;1.60;;;20.70;99.90;;;;;;2585032;54;20227;31
2023/08/01 00:36:25;;;;;;;3.00;1.60;;;20.70;99.90;;;;;;2586052;54;20036;31
2023/08/01 00:39:04;;;;;;;2.90;1.40;;;20.70;99.90;;;;;;2604658;46;20238;31
2023/08/01 00:41:39;;;;;;;3.38;1.70;;;20.60;99.90;;;;;;2604148;46;20052;31
2023/08/01 00:44:11;;;;;;;3.42;1.55;;;20.60;99.90;;;;;;2586334;54;20158;31
2023/08/01 00:46:48;;;;;;;3.85;1.50;;;20.60;99.90;;;;;;2586567;54;20493;31
2023/08/01 00:49:21;;;;;;;3.20;1.60;;;20.60;99.90;;;;;;2585488;54;20920;31
2023/08/01 00:51:55;;;;;;;2.97;1.80;;;20.60;99.90;;;;;;2604068;46;20716;31
2023/08/01 00:54:36;;;;;;;9.25;2.00;;;20.60;99.90;;;;;;2586693;54;20026;31
2023/08/01 00:57:10;;;;;;;4.95;2.30;;;20.50;99.90;;;;;;2586326;54;20130;31
2023/08/01 00:59:43;;;;;;;4.20;1.70;;;20.50;99.90;;;;;;2586185;54;20097;31
2023/08/01 01:02:22;;;;;;;3.40;1.65;;;20.50;99.90;;;;;;2597905;46;20654;31
2023/08/01 01:05:00;;;;;;;5.53;2.10;;;20.50;99.90;;;;;;2585000;54;21675;31
2023/08/01 01:07:32;;;;;;;4.00;2.00;;;20.50;99.90;;;;;;2586199;54;20026;31
2023/08/01 01:10:09;;;;;;;4.20;2.15;;;20.50;99.90;;;;;;2586041;54;20081;31
2023/08/01 01:12:41;;;;;;;3.95;2.33;;;20.40;99.90;;;;;;2586428;54;20013;31
2023/08/01 01:15:18;;;;;;;5.22;1.92;;;20.40;99.90;;;;;;2683805;39;22328;31
2023/08/01 01:17:51;;;;;;;6.67;2.20;;;20.40;99.90;;;;;;2585809;54;20109;31
2023/08/01 01:20:29;;;;;;;3.05;1.80;;;20.40;99.90;;;;;;2586142;54;21092;31
2023/08/01 01:23:09;;;;;;;2.67;1.52;;;20.30;99.90;;;;;;2586468;54;20038;31
2023/08/01 01:25:42;;;;;;;3.13;1.80;;;20.30;99.90;;;;;;2586360;54;20659;31
2023/08/01 01:28:18;;;;;;;4.55;2.15;;;20.30;99.90;;;;;;2586250;54;20027;31
2023/08/01 01:30:53;;;;;;;3.10;1.80;;;20.20;99.90;;;;;;2585795;54;21601;31
2023/08/01 01:33:29;;;;;;;3.00;1.85;;;20.20;99.90;;;;;;2684054;39;20481;31
2023/08/01 01:36:05;;;;;;;4.45;2.30;;;20.20;99.90;;;;;;2683607;39;20577;31
2023/08/01 01:38:45;;;;;;;6.85;1.67;;;20.20;99.90;;;;;;2586185;54;20860;31
2023/08/01 01:41:20;;;;;;;3.10;1.60;;;20.10;99.90;;;;;;2585825;54;20665;31
2023/08/01 01:43:57;;;;;;;3.47;2.00;;;20.10;99.90;;;;;;2586204;54;20850;31
2023/08/01 01:46:30;;;;;;;3.50;1.65;;;20.00;99.90;;;;;;2586097;54;20782;31
2023/08/01 01:49:08;;;;;;;2.67;1.30;;;20.00;99.90;;;;;;2586045;54;20048;31
2023/08/01 01:51:44;;;;;;;4.97;1.80;;;20.00;99.90;;;;;;2604704;46;20099;31
2023/08/01 01:54:28;;;;;;;3.00;1.40;;;19.90;99.90;;;;;;2586161;54;21579;31
2023/08/01 01:57:05;;;;;;;3.33;1.90;;;19.90;99.90;;;;;;2586583;54;20022;31
2023/08/01 01:59:38;;;;;;;6.45;2.35;;;19.90;99.90;;;;;;2585331;54;20890;31
2023/08/01 02:02:17;;;;;;;3.45;1.80;;;19.90;99.90;;;;;;2586294;54;20022;31
2023/08/01 02:04:50;;;;;;;6.10;1.80;;;19.90;99.90;;;;;;2604665;46;20037;31
2023/08/01 02:07:24;;;;;;;3.93;1.90;;;19.80;99.90;;;;;;2586145;54;20030;31
2023/08/01 02:10:07;;;;;;;3.42;1.88;;;19.80;99.90;;;;;;2586119;54;20239;31
2023/08/01 02:12:45;;;;;;;4.65;1.73;;;19.80;99.90;;;;;;2684081;39;21701;31
2023/08/01 02:15:20;;;;;;;2.55;1.55;;;19.80;99.90;;;;;;2684032;39;21457;31
2023/08/01 02:17:59;;;;;;;4.20;1.73;;;19.80;99.90;;;;;;2585350;54;20050;31
2023/08/01 02:20:34;;;;;;;3.95;1.80;;;19.80;99.90;;;;;;2593005;46;20117;31
2023/08/01 02:23:15;;;;;;;3.40;1.50;;;19.80;99.90;;;;;;2590244;46;20919;31
2023/08/01 02:25:53;;;;;;;3.20;1.73;;;19.80;99.90;;;;;;2585887;54;20852;31
2023/08/01 02:28:27;;;;;;;3.72;1.83;;;19.90;99.90;;;;;;2604717;46;20636;31
2023/08/01 02:31:06;;;;;;;4.95;1.90;;;19.80;99.90;;;;;;2585337;54;21597;31
2023/08/01 02:33:42;;;;;;;3.55;2.00;;;19.90;99.90;;;;;;2586032;54;20853;31
2023/08/01 02:36:17;;;;;;;5.32;1.98;;;19.90;99.90;;;;;;2604228;46;20850;31
2023/08/01 02:38:54;;;;;;;4.05;1.70;;;19.90;99.90;;;;;;2683993;39;21431;31
2023/08/01 02:41:30;;;;;;;2.88;1.70;;;19.90;99.90;;;;;;2586053;54;20029;31
2023/08/01 02:44:05;;;;;;;3.95;1.80;;;19.90;99.90;;;;;;2585861;54;21266;31
2023/08/01 02:46:39;;;;;;;5.25;1.77;;;19.90;99.90;;;;;;2683737;39;20441;31
2023/08/01 02:49:17;;;;;;;6.13;1.90;;;19.90;99.90;;;;;;2585118;54;20046;31
2023/08/01 02:51:51;;;;;;;3.65;1.90;;;19.90;99.90;;;;;;2586145;54;20953;31
2023/08/01 02:54:28;;;;;;;3.20;1.73;;;19.90;99.90;;;;;;2586192;54;20848;31
2023/08/01 02:57:04;;;;;;;4.05;1.80;;;19.90;99.90;;;;;;2604581;46;20729;31
2023/08/01 02:59:41;;;;;;;3.73;1.83;;;19.90;99.90;;;;;;2585904;54;20867;31
2023/08/01 03:02:14;;;;;;;4.03;1.60;;;19.90;99.90;;;;;;2604687;46;20352;31
2023/08/01 03:04:52;;;;;;;3.45;1.55;;;19.90;99.90;;;;;;2585556;54;20030;31
2023/08/01 03:07:29;;;;;;;3.25;1.65;;;19.90;99.90;;;;;;2586065;54;20863;31
2023/08/01 03:10:07;;;;;;;4.88;1.77;;;19.90;99.90;;;;;;2585058;54;20922;31
2023/08/01 03:12:52;;;;;;;6.18;2.05;;;19.90;99.90;;;;;;2585902;54;19942;31
2023/08/01 03:15:26;;;;;;;3.90;2.20;;;19.80;99.90;;;;;;2604523;46;20033;31
2023/08/01 03:18:05;;;;;;;5.43;1.98;;;19.80;99.90;;;;;;2585913;54;20238;31
2023/08/01 03:20:40;;;;;;;5.85;2.00;;;19.70;99.90;;;;;;2754790;31;21377;31
2023/08/01 03:23:13;;;;;;;3.85;2.10;;;19.70;99.90;;;;;;2585790;54;20081;31
2023/08/01 03:25:45;;;;;;;4.20;2.30;;;19.60;99.90;;;;;;2585868;54;20882;31
2023/08/01 03:28:23;;;;;;;5.40;2.10;;;19.60;99.90;;;;;;2586036;54;20946;31
2023/08/01 03:31:00;;;;;;;2.63;1.55;;;19.50;99.90;;;;;;2586057;54;20108;31
2023/08/01 03:33:36;;;;;;;4.80;1.93;;;19.50;99.90;;;;;;2586208;54;20833;31
2023/08/01 03:36:13;;;;;;;3.90;2.15;;;19.50;99.90;;;;;;2590057;46;21308;31
2023/08/01 03:38:52;;;;;;;6.20;2.70;;;19.50;99.90;;;;;;2585644;54;20057;31
2023/08/01 03:41:32;;;;;;;5.05;2.10;;;19.50;99.90;;;;;;2753993;31;22312;31
2023/08/01 03:44:10;;;;;;;5.53;2.63;;;19.50;99.90;;;;;;2586066;54;20053;31
2023/08/01 03:46:44;;;;;;;4.35;2.30;;;19.40;99.90;;;;;;2585426;54;20812;31
2023/08/01 03:49:22;;;;;;;3.60;2.20;;;19.40;99.90;;;;;;2586139;54;20763;31
2023/08/01 03:52:01;;;;;;;3.85;2.30;;;19.40;99.90;;;;;;2585913;54;20998;31
2023/08/01 03:54:37;;;;;;;3.63;2.13;;;19.40;99.90;;;;;;2584907;54;20088;31
2023/08/01 03:57:08;;;;;;;;;;;19.40;99.90;;;;;;2585916;54;20946;31
2023/08/01 03:59:41;;;;;;;4.38;2.00;;;19.40;99.90;;;;;;2585367;54;19935;31
2023/08/01 04:02:18;;;;;;;3.90;2.10;;;19.40;99.90;;;;;;2585739;54;19993;31
2023/08/01 04:04:53;;;;;;;3.47;2.05;;;19.40;99.90;;;;;;2585726;54;20136;31
2023/08/01 04:07:28;;;;;;;4.22;2.63;;;19.40;99.90;;;;;;2585634;54;20110;31
2023/08/01 04:10:00;;;;;;;;;;;19.40;99.90;;;;;;2604120;47;20940;31
2023/08/01 04:12:35;;;;;;;4.10;2.23;;;19.40;99.90;;;;;;2603990;47;20814;31
2023/08/01 04:15:13;;;;;;;5.10;2.35;;;19.40;99.90;;;;;;2584810;54;20030;31
2023/08/01 04:17:49;;;;;;;5.15;2.50;;;19.40;99.90;;;;;;2604376;47;20086;31
2023/08/01 04:20:23;;;;;;;9.55;2.80;;;19.40;99.90;;;;;;2585919;54;20029;31
2023/08/01 04:23:00;;;;;;;6.65;2.80;;;19.40;99.90;;;;;;2585939;54;20026;31
2023/08/01 04:25:32;;;;;;;5.18;2.72;;;19.30;99.90;;;;;;2585569;54;20777;31
2023/08/01 04:28:09;;;;;;;5.75;2.58;;;19.30;99.90;;;;;;2585738;54;20030;31
2023/08/01 04:30:43;;;;;;;6.65;2.60;;;19.30;99.90;;;;;;2585580;54;20057;31
2023/08/01 04:33:22;;;;;;;7.00;3.25;;;19.30;99.90;;;;;;2585771;54;20026;31
2023/08/01 04:35:58;;;;;;;7.30;2.78;;;19.30;99.90;;;;;;2603512;47;20511;31
2023/08/01 04:38:33;;;;;;;5.57;2.80;;;19.20;99.90;;;;;;2604346;47;20030;31
2023/08/01 04:41:11;;;;;;;7.47;2.78;;;19.30;99.90;;;;;;2604258;47;20854;31
2023/08/01 04:43:52;;;;;;;5.25;2.80;;;19.20;99.90;;;;;;2585638;54;20053;31
2023/08/01 04:46:28;;;;;;;6.90;3.07;;;19.20;99.90;;;;;;2585474;54;20140;31
2023/08/01 04:49:06;;;;;;;8.75;2.90;;;19.10;99.90;;;;;;2585250;54;20989;31
2023/08/01 04:51:42;;;;;;;6.97;2.55;;;19.10;99.90;;;;;;2604157;47;20027;31
2023/08/01 04:54:18;;;;;;;6.60;2.70;;;19.10;99.90;;;;;;2585709;54;20159;31
2023/08/01 04:56:50;;;;;;;4.65;2.78;;;19.00;99.90;;;;;;2586459;54;20033;31
2023/08/01 04:59:28;;;;;;;7.00;3.00;;;19.00;99.90;;;;;;2586655;54;20030;31
2023/08/01 05:02:03;;;;;;;3.88;2.58;;;19.00;99.90;;;;;;2586431;54;20748;31
2023/08/01 05:04:45;;;;;;;;;;;19.00;99.90;;;;;;2684546;39;21682;31
2023/08/01 05:07:18;;;;;;;7.90;2.80;;;19.00;99.90;;;;;;2586236;54;22336;31
2023/08/01 05:09:53;;;;;;;5.07;2.92;;;19.00;99.90;;;;;;2586513;54;20089;31
2023/08/01 05:12:31;;;;;;;6.90;3.00;;;19.00;99.90;;;;;;2586385;54;20870;31
2023/08/01 05:15:04;;;;;;;;;;;19.00;99.90;;;;;;2586666;54;21431;31
2023/08/01 05:17:37;;;;;;;6.17;3.27;;;19.00;99.90;;;;;;2586415;54;20088;31
2023/08/01 05:20:14;;;;;;;4.40;2.55;;;19.00;99.90;;;;;;2586201;54;20328;31
2023/08/01 05:22:50;;;;;;;7.22;3.10;;;19.00;99.90;;;;;;2586297;54;20086;31
2023/08/01 05:25:26;;;;;;;6.73;3.23;;;19.00;99.90;;;;;;2605247;46;20026;31
2023/08/01 05:28:03;;;;;;;8.87;3.33;;;19.00;99.90;;;;;;2585589;54;22793;31
2023/08/01 05:30:36;;;;;;;5.50;3.35;;;18.90;99.90;;;;;;2586321;54;21063;31
2023/08/01 05:33:10;;;;;;;8.90;3.27;;;18.80;99.90;;;;;;2586228;54;20073;31
2023/08/01 05:35:46;;;;;;;6.90;3.23;;;18.70;99.90;;;;;;2586335;54;20117;31
2023/08/01 05:38:23;;;;;;;6.07;3.00;;;18.70;99.90;;;;;;2586377;54;19957;31
2023/08/01 05:40:58;;;;;;;5.55;3.50;;;18.60;99.90;;;;;;2594757;46;20050;31
2023/08/01 05:43:36;;;;;;;12.50;3.80;;;18.60;99.90;;;;;;2604934;46;20906;31
2023/08/01 05:46:10;;;;;;;5.25;3.45;;;18.50;99.90;;;;;;2586404;54;20858;31
2023/08/01 05:48:48;;;;;;;6.07;3.55;;;18.50;99.90;;;;;;2604510;46;20034;31
2023/08/01 05:51:26;;;;;;;6.93;3.17;;;18.40;99.90;;;;;;2586211;54;20026;31
2023/08/01 05:54:00;;;;;;;6.32;3.67;;;18.40;99.90;;;;;;2604325;46;19934;31
2023/08/01 05:56:37;;;;;;;5.90;3.10;;;18.40;99.90;;;;;;2604723;46;20081;31
2023/08/01 05:59:16;;;;;;;6.20;3.40;;;18.30;99.90;;;;;;2586206;54;20061;31
2023/08/01 06:01:57;;;;;;;8.10;3.75;;;18.30;99.90;;;;;;2586468;54;20930;31
2023/08/01 06:04:30;;;;;;;5.60;3.30;;;18.30;99.90;;;;;;2586380;54;20033;31
2023/08/01 06:07:07;;;;;;;8.68;3.65;;;18.30;99.90;;;;;;2585996;54;20137;31
2023/08/01 06:09:42;;;;;;;5.97;2.90;;;18.30;99.90;;;;;;2746609;31;20027;31
2023/08/01 06:12:17;;;;;;;8.90;3.70;;;18.30;99.90;;;;;;2586003;54;20112;31
2023/08/01 06:14:50;;;;;;;;;;;18.30;99.90;;;;;;2586284;54;20950;31
2023/08/01 06:17:26;;;;;;;5.63;3.40;;;18.30;99.90;;;;;;2585151;54;19948;31
2023/08/01 06:20:04;;;;;;;6.10;3.30;;;18.20;99.90;;;;;;2683632;39;21520;31
2023/08/01 06:22:40;;;;;;;6.78;3.00;;;18.30;99.90;;;;;;2585226;54;20843;31
2023/08/01 06:25:16;;;;;;;7.50;3.90;;;18.30;99.90;;;;;;2585981;54;20032;31
2023/08/01 06:27:54;;;;;;;8.32;3.40;;;18.30;99.90;;;;;;2586060;54;20057;31
2023/08/01 06:30:30;;;;;;;5.03;3.75;;;18.30;99.90;;;;;;2586091;54;20046;31
2023/08/01 06:33:06;;;;;;;5.37;3.20;;;18.30;99.90;;;;;;2585925;54;20021;31
2023/08/01 06:35:43;;;;;;;6.00;3.37;;;18.30;99.90;;;;;;2586094;54;20023;31
2023/08/01 06:38:22;;;;;;;5.68;3.90;;;18.40;99.90;;;;;;2586252;54;20243;31
2023/08/01 06:40:57;;;;;;;7.80;3.30;;;18.40;99.90;;;;;;2584955;54;20022;31
2023/08/01 06:43:33;;;;;;;8.70;3.75;;;18.40;99.90;;;;;;2585458;54;20245;31
2023/08/01 06:46:07;;;;;;;7.55;4.05;;;18.40;99.90;;;;;;2585781;54;21841;31
2023/08/01 06:48:41;;;;;;;9.70;4.70;;;18.40;99.90;;;;;;2601463;46;20824;31
2023/08/01 06:51:17;;;;;;;10.85;4.53;;;18.40;99.90;;;;;;2586337;54;20865;31
2023/08/01 06:53:51;;;;;;;;;;;18.40;99.90;;;;;;2586092;54;19934;31
2023/08/01 06:56:29;;;;;;;5.83;3.63;;;18.40;99.90;;;;;;2585082;54;19949;31
2023/08/01 06:59:07;;;;;;;6.15;3.28;;;18.40;99.90;;;;;;2586041;54;20956;31
2023/08/01 07:01:46;;;;;;;9.60;4.17;;;18.30;99.90;;;;;;2586209;54;20030;31
2023/08/01 07:04:26;;;;;;;6.25;3.75;;;18.40;99.90;;;;;;2683777;39;20521;31
2023/08/01 07:06:59;;;;;;;5.50;4.00;;;18.30;99.90;;;;;;2585939;54;20027;31
2023/08/01 07:09:35;;;;;;;9.48;4.20;;;18.40;99.90;;;;;;2585946;54;20977;31
2023/08/01 07:12:15;;;;;;;8.63;5.15;;;18.40;99.90;;;;;;2586073;54;20025;31
2023/08/01 07:14:48;;;;;;;9.38;4.13;;;18.40;99.90;;;;;;2585971;54;20032;31
2023/08/01 07:17:24;;;;;;;6.60;4.50;;;18.40;99.90;;;;;;2585992;54;19961;31
2023/08/01 07:19:57;;;;;;;7.37;4.10;;;18.40;99.90;;;;;;2702171;39;21574;31
2023/08/01 07:22:30;;;;;;;9.52;4.75;;;18.40;99.90;;;;;;2683777;39;20396;31
2023/08/01 07:25:11;;;;;;;8.65;4.28;;;18.40;99.90;;;;;;2701892;39;20495;31
2023/08/01 07:27:50;;;;;;;6.10;4.60;;;18.50;99.90;;;;;;2604385;46;20814;31
2023/08/01 07:30:23;;;;;;;8.80;4.53;;;18.50;99.90;;;;;;2586199;54;20770;31
2023/08/01 07:32:59;;;;;;;10.47;4.30;;;18.50;99.90;;;;;;2773067;31;21568;31
2023/08/01 07:35:46;;;;;;;6.85;4.50;;;18.60;99.90;;;;;;2585978;54;21784;31
2023/08/01 07:38:23;;;;;;;9.13;4.30;;;18.60;99.90;;;;;;2683705;39;21632;31
2023/08/01 07:41:02;;;;;;;5.55;3.88;;;18.60;99.90;;;;;;2585899;54;20846;31
2023/08/01 07:43:36;;;;;;;7.50;4.75;;;18.60;99.90;;;;;;2585983;54;20752;31
2023/08/01 07:46:11;;;;;;;6.80;4.30;;;18.60;99.90;;;;;;2586106;54;20022;31
2023/08/01 07:48:46;;;;;;;8.65;4.30;;;18.70;99.90;;;;;;2753904;31;22508;31
2023/08/01 07:51:19;;;;;;;13.10;4.40;;;18.70;99.90;;;;;;2585234;54;20030;31
2023/08/01 07:53:56;;;;;;;6.35;4.00;;;18.70;99.90;;;;;;2585717;54;22530;31
2023/08/01 07:56:37;;;;;;;7.50;3.83;;;18.80;99.90;;;;;;2585906;54;20101;31
2023/08/01 07:59:17;;;;;;;7.38;4.15;;;18.80;99.90;;;;;;2585871;54;20038;31
2023/08/01 08:01:52;;;;;;;9.50;3.97;;;18.90;99.90;;;;;;2585665;54;20026;31
2023/08/01 08:04:28;;;;;;;7.57;4.03;;;19.00;99.90;;;;;;2585935;54;20230;31
2023/08/01 08:07:01;;;;;;;8.13;4.67;;;19.10;99.90;;;;;;2586014;54;20050;31
2023/08/01 08:09:35;;;;;;;6.65;4.10;;;19.30;99.90;;;;;;2585694;54;20654;31
2023/08/01 08:12:14;;;;;;;7.18;4.57;;;19.30;99.90;;;;;;2586046;54;20022;31
2023/08/01 08:14:46;;;;;;;13.50;5.95;;;19.50;99.90;;;;;;2604397;47;20744;31
2023/08/01 08:17:22;;;;;;;6.85;5.15;;;19.50;99.90;;;;;;2586009;54;20022;31
2023/08/01 08:19:57;;;;;;;6.80;4.50;;;19.50;99.90;;;;;;2603960;47;20026;31
2023/08/01 08:22:34;;;;;;;10.70;5.20;;;19.50;99.90;;;;;;2585674;54;20880;31
2023/08/01 08:25:08;;;;;;;7.05;4.00;;;19.60;99.90;;;;;;2701856;39;21443;31
2023/08/01 08:27:45;;;;;;;7.45;4.30;;;19.60;99.90;;;;;;2585869;54;20050;31
2023/08/01 08:30:19;;;;;;;8.50;5.30;;;19.60;99.90;;;;;;2586254;54;20760;31
2023/08/01 08:32:54;;;;;;;6.73;4.17;;;19.60;99.90;;;;;;2586571;54;20758;31
2023/08/01 08:35:30;;;;;;;8.07;4.68;;;19.60;99.90;;;;;;2586530;54;20049;31
2023/08/01 08:38:03;;;;;;;7.47;4.20;;;19.60;99.90;;;;;;2702612;39;20424;31
2023/08/01 08:40:37;;;;;;;8.88;4.75;;;19.60;99.90;;;;;;2586488;54;20049;31
2023/08/01 08:43:13;;;;;;;9.63;5.10;;;19.50;99.90;;;;;;2586594;54;21290;31
2023/08/01 08:45:48;;;;;;;6.22;4.15;;;19.50;99.90;;;;;;2586560;54;20027;31
2023/08/01 08:48:26;;;;;;;8.55;3.75;;;19.60;99.90;;;;;;2684596;39;21474;31
2023/08/01 08:51:03;;;;;;;7.80;4.82;;;19.50;99.90;;;;;;2586459;54;20022;31
2023/08/01 08:53:37;;;;;;;6.60;4.63;;;19.50;99.90;;;;;;2586539;54;20030;31
2023/08/01 08:56:12;;;;;;;8.13;4.38;;;19.50;99.90;;;;;;2605211;46;20041;31
2023/08/01 08:58:52;;;;;;;9.25;4.40;;;19.60;99.90;;;;;;2586404;54;20026;31
2023/08/01 09:01:34;;;;;;;8.65;4.68;;;19.60;99.90;;;;;;2586555;54;20252;31
2023/08/01 09:04:10;;;;;;;7.60;4.10;;;19.70;99.90;;;;;;2586618;54;20860;31
2023/08/01 09:06:43;;;;;;;;;;;19.70;99.90;;;;;;2605382;46;20850;31
2023/08/01 09:09:22;;;;;;;;;;;19.80;99.90;;;;;;2586530;54;20733;31
2023/08/01 09:11:57;;;;;;;10.05;5.35;;;19.90;99.90;;;;;;2683610;39;22216;31
2023/08/01 09:14:35;;;;;;;7.25;4.38;;;19.80;99.90;;;;;;2586509;54;20109;31
2023/08/01 09:17:11;;;;;;;7.32;3.95;;;19.80;99.90;;;;;;2586403;54;19941;31
2023/08/01 09:19:50;;;;;;;6.68;4.15;;;19.80;99.90;;;;;;2586258;54;20947;31
2023/08/01 09:22:26;;;;;;;6.25;4.05;;;19.80;99.90;;;;;;2586385;54;20867;31
2023/08/01 09:25:01;;;;;;;7.22;3.53;;;19.80;99.90;;;;;;2684316;39;21556;31
2023/08/01 09:27:37;;;;;;;6.45;3.38;;;19.80;99.90;;;;;;2604852;46;20954;31
2023/08/01 09:30:17;;;;;;;6.82;3.63;;;19.70;99.90;;;;;;2604666;46;20933;31
2023/08/01 09:33:00;;;;;;;7.22;3.55;;;19.70;99.90;;;;;;2585503;54;20034;31
2023/08/01 09:35:41;;;;;;;6.00;3.00;;;19.70;99.90;;;;;;2586302;54;20022;31
2023/08/01 09:38:17;;;;;;;4.45;3.15;;;19.70;99.90;;;;;;2604739;46;20061;31
2023/08/01 09:40:49;;;;;;;;;;;19.70;99.90;;;;;;2586516;54;20748;31
2023/08/01 09:43:23;;;;;;;7.40;3.70;;;19.70;99.90;;;;;;2585554;54;19942;31
2023/08/01 09:46:04;;;;;;;4.65;3.20;;;19.80;99.90;;;;;;2604664;46;20898;31
2023/08/01 09:48:41;;;;;;;6.90;3.73;;;19.80;99.90;;;;;;2586298;54;20027;31
2023/08/01 09:51:16;;;;;;;7.77;3.10;;;19.90;99.90;;;;;;2586067;54;21324;31
2023/08/01 09:53:54;;;;;;;3.75;2.63;;;19.90;99.90;;;;;;2604568;46;20909;31
2023/08/01 09:56:29;;;;;;;4.50;3.10;;;20.00;99.90;;;;;;2586338;54;20022;31
2023/08/01 09:59:02;;;;;;;5.23;2.77;;;20.00;99.90;;;;;;2586139;54;20065;31
2023/08/01 10:01:44;;;;;;;4.10;2.20;;;20.10;99.90;;;;;;2586327;54;20045;31
2023/08/01 10:04:17;;;;;;;6.10;2.70;;;20.00;99.90;;;;;;2586216;54;20764;31
2023/08/01 10:06:58;;;;;;;5.05;3.22;;;20.00;99.90;;;;;;2604468;46;20186;31
2023/08/01 10:09:35;;;;;;;3.95;2.47;;;20.00;99.90;;;;;;2684013;39;21590;31
2023/08/01 10:12:12;;;;;;;6.10;3.20;;;20.00;99.90;;;;;;2586049;54;20576;31
2023/08/01 10:14:48;;;;;;;8.55;3.40;;;20.00;99.90;;;;;;2585896;54;20928;31
2023/08/01 10:17:28;;;;;;;5.50;3.13;;;20.10;99.90;;;;;;2585379;54;20018;31
2023/08/01 10:20:03;;;;;;;6.20;2.75;;;20.10;99.90;;;;;;2684215;39;22425;31
2023/08/01 10:22:36;;;;;;;5.97;3.42;;;20.10;99.90;;;;;;2586399;54;20030;31
2023/08/01 10:25:13;;;;;;;6.07;2.80;;;20.10;99.90;;;;;;2586198;54;20854;31
2023/08/01 10:27:49;;;;;;;5.70;3.10;;;20.20;99.90;;;;;;2586187;54;20843;31
2023/08/01 10:30:30;;;;;;;6.13;3.10;;;20.20;99.90;;;;;;2604764;46;20022;31
2023/08/01 10:33:15;;;;;;;5.10;2.60;;;20.20;99.90;;;;;;2586041;54;20841;31
2023/08/01 10:35:52;;;;;;;5.07;2.75;;;20.30;99.90;;;;;;2586061;54;20860;31
2023/08/01 10:38:26;;;;;;;2.78;2.33;;;20.30;99.90;;;;;;2586078;54;20117;31
2023/08/01 10:41:03;;;;;;;3.90;2.40;;;20.30;99.90;;;;;;2586277;54;20026;31
2023/08/01 10:43:37;;;;;;;4.50;2.60;;;20.30;99.90;;;;;;2585817;54;20064;31
2023/08/01 10:46:17;;;;;;;2.30;1.95;;;20.30;99.90;;;;;;2585189;54;21119;31
2023/08/01 10:48:58;;;;;;;4.20;2.37;;;20.30;99.90;;;;;;2585901;54;20888;31
2023/08/01 10:51:41;;;;;;;3.72;2.50;;;20.40;99.90;;;;;;2585540;54;20096;31
2023/08/01 10:54:23;;;;;;;3.67;2.25;;;20.40;99.90;;;;;;2604544;46;20042;31
2023/08/01 10:57:01;;;;;;;4.90;2.60;;;20.40;99.90;;;;;;2604384;46;20030;31
2023/08/01 10:59:38;;;;;;;4.45;2.60;;;20.50;99.90;;;;;;2586019;54;20332;31
2023/08/01 11:02:14;;;;;;;3.58;2.65;;;20.50;99.90;;;;;;2585988;54;20874;31
2023/08/01 11:04:57;;;;;;;4.03;2.88;;;20.40;99.90;;;;;;2586091;54;20026;31
2023/08/01 11:07:35;;;;;;;3.63;2.53;;;20.50;99.90;;;;;;2585908;54;20136;31
2023/08/01 11:10:11;;;;;;;5.00;2.50;;;20.40;99.90;;;;;;2585815;54;21040;31
2023/08/01 11:12:48;;;;;;;4.53;2.55;;;20.40;99.90;;;;;;2586043;54;20030;31
2023/08/01 11:15:20;;;;;;;7.72;2.83;;;20.40;99.90;;;;;;2585952;54;20846;31
2023/08/01 11:17:57;;;;;;;3.95;2.20;;;20.40;99.90;;;;;;2586070;54;20038;31
2023/08/01 11:20:41;;;;;;;4.75;2.80;;;20.40;99.90;;;;;;2586091;54;20870;31
2023/08/01 11:23:15;;;;;;;6.43;2.80;;;20.30;99.90;;;;;;2585429;54;20030;31
2023/08/01 11:25:50;;;;;;;4.25;2.40;;;20.30;99.90;;;;;;2585354;54;21348;31
2023/08/01 11:28:27;;;;;;;5.38;3.30;;;20.30;99.90;;;;;;2586130;54;19947;31
2023/08/01 11:31:04;;;;;;;6.65;2.80;;;20.30;99.90;;;;;;2585738;54;20844;31
2023/08/01 11:33:38;;;;;;;5.70;2.73;;;20.30;99.90;;;;;;2585998;54;20034;31
2023/08/01 11:36:15;;;;;;;4.85;3.00;;;20.30;99.90;;;;;;2586240;54;20030;31
2023/08/01 11:38:49;;;;;;;8.48;3.03;;;20.30;99.90;;;;;;2604317;46;20027;31
2023/08/01 11:41:23;;;;;;;5.05;3.10;;;20.30;99.90;;;;;;2586035;54;20919;31
2023/08/01 11:43:58;;;;;;;4.03;2.50;;;20.30;99.90;;;;;;2585974;54;20736;31
2023/08/01 11:46:34;;;;;;;;;;;20.30;99.90;;;;;;2585976;54;20867;31
2023/08/01 11:49:12;;;;;;;6.15;2.50;;;20.30;99.90;;;;;;2585426;54;19934;31
2023/08/01 11:51:48;;;;;;;4.45;2.40;;;20.30;99.90;;;;;;2585489;54;20879;31
2023/08/01 11:54:23;;;;;;;4.30;1.65;;;20.40;99.90;;;;;;2603435;46;20512;31
2023/08/01 11:57:02;;;;;;;3.43;1.97;;;20.50;99.90;;;;;;2604417;46;20788;31
2023/08/01 11:59:49;;;;;;;2.75;1.63;;;20.60;99.90;;;;;;2586058;54;20023;31
2023/08/01 12:02:26;;;;;;;3.93;1.63;;;20.60;99.90;;;;;;2585879;54;20903;31
2023/08/01 12:05:02;;;;;;;4.70;1.60;;;20.70;99.90;;;;;;2593056;46;20022;31
2023/08/01 12:07:39;;;;;;;2.00;1.45;;;20.90;99.90;;;;;;2587463;54;20132;31
2023/08/01 12:10:17;;;;;;;3.28;1.98;;;21.00;99.90;;;;;;2606110;46;20094;31
2023/08/01 12:12:51;;;;;;;2.00;1.80;;;21.30;99.90;;;;;;2685516;38;20504;31
2023/08/01 12:15:27;;;;;;;5.85;1.70;;;21.40;99.90;;;;;;2604120;46;20747;31
2023/08/01 12:18:03;;;;;;;5.32;2.00;;;21.50;99.90;;;;;;2586916;54;20038;31
2023/08/01 12:20:37;;;;;;;2.70;1.52;;;21.80;99.90;;;;;;2586622;54;20130;31
2023/08/01 12:23:16;;;;;;;3.53;1.38;;;21.90;99.90;;;;;;2606380;46;20031;31
2023/08/01 12:25:50;;;;;;;1.75;1.40;;;22.00;99.90;;;;;;2587687;54;20022;31
2023/08/01 12:28:30;;;;;;;1.75;1.10;;;22.10;99.90;;;;;;2587699;54;20931;31
2023/08/01 12:31:11;;;;;;;1.83;1.40;;;22.30;99.90;;;;;;2587441;54;20767;31
2023/08/01 12:33:48;;;;;;;1.80;1.35;;;22.50;99.90;;;;;;2587699;54;20026;31
2023/08/01 12:36:23;;;;;;;4.53;1.30;;;22.60;99.90;;;;;;2685901;38;20416;31
2023/08/01 12:38:59;;;;;;;6.85;1.70;;;22.60;99.90;;;;;;2586881;54;20251;31
2023/08/01 12:41:37;;;;;;;2.17;1.30;;;22.70;99.90;;;;;;2587643;54;20030;31
2023/08/01 12:44:11;;;;;;;5.85;1.60;;;22.80;99.90;;;;;;2587601;54;20033;31
2023/08/01 12:46:44;;;;;;;2.70;1.45;;;22.90;99.90;;;;;;2587329;54;20057;31
2023/08/01 12:49:18;;;;;;;3.13;1.17;;;23.00;99.90;;;;;;2587595;54;20847;31
2023/08/01 12:51:52;;;;;;;2.60;1.38;;;23.20;99.90;;;;;;2587404;54;20867;31
2023/08/01 12:54:30;;;;;;;2.72;1.45;;;23.30;99.90;;;;;;2587354;54;20026;31
2023/08/01 12:57:06;;;;;;;2.27;1.30;;;23.40;99.90;;;;;;2587561;54;20033;31
2023/08/01 12:59:42;;;;;;;4.18;1.00;;;23.40;99.90;;;;;;2605784;46;20022;31
2023/08/01 13:02:18;;;;;;;1.85;1.38;;;23.40;99.90;;;;;;2685334;39;21324;31
2023/08/01 13:04:50;;;;;;;;;;;23.50;99.90;;;;;;2587796;54;21523;31
2023/08/01 13:07:23;;;;;;;3.00;1.10;;;23.40;99.90;;;;;;2587378;54;19938;31
2023/08/01 13:10:00;;;;;;;2.10;1.38;;;23.40;99.90;;;;;;2587365;54;20026;31
2023/08/01 13:12:34;;;;;;;1.95;1.00;;;23.40;99.90;;;;;;2587201;54;19939;31
2023/08/01 13:15:10;;;;;;;2.70;1.40;;;23.50;99.90;;;;;;2596137;46;20027;31
2023/08/01 13:17:55;;;;;;;2.95;1.20;;;23.50;99.90;;;;;;2585951;54;21290;31
2023/08/01 13:20:32;;;;;;;2.15;1.20;;;23.60;99.90;;;;;;2585582;54;20863;31
2023/08/01 13:23:09;;;;;;;1.63;1.00;;;23.70;99.90;;;;;;2683178;39;21438;31
2023/08/01 13:25:47;;;;;;;2.50;1.40;;;23.70;99.90;;;;;;2586351;54;20089;31
2023/08/01 13:28:23;;;;;;;2.17;1.40;;;23.70;99.90;;;;;;2604795;46;20664;31
2023/08/01 13:31:02;;;;;;;1.40;0.90;;;23.70;99.90;;;;;;2586530;54;20782;31
2023/08/01 13:33:39;;;;;;;4.15;1.40;;;23.70;99.90;;;;;;2586648;54;20026;31
2023/08/01 13:36:17;;;;;;;3.30;1.30;;;23.80;99.90;;;;;;2585496;54;20057;31
2023/08/01 13:38:55;;;;;;;2.88;1.73;;;23.80;99.90;;;;;;2585564;54;20019;31
2023/08/01 13:41:38;;;;;;;3.20;1.30;;;23.90;99.90;;;;;;2585617;54;20846;31
2023/08/01 13:44:11;;;;;;;2.80;1.30;;;24.00;99.90;;;;;;2586322;54;20837;31
2023/08/01 13:46:45;;;;;;;3.00;1.40;;;24.00;99.90;;;;;;2586390;54;20956;31
2023/08/01 13:49:22;;;;;;;2.20;1.40;;;24.10;99.90;;;;;;2586126;54;20026;31